sensor_id;sensor_type;location;lat;lon;timestamp;temperature;humidity
33988;DHT22;37428;53.580;-1.666;2022-12-18T00:02:36;2.00;83.10
33988;DHT22;37428;53.580;-1.666;2022-12-18T00:05:46;1.90;83.00
33988;DHT22;37428;53.580;-1.666;2022-12-18T00:08:49;1.90;82.50
33988;DHT22;37428;53.580;-1.666;2022-12-18T00:11:51;1.90;82.50
33988;DHT22;37428;53.580;-1.666;2022-12-18T00:14:57;1.90;81.80
33988;DHT22;37428;53.580;-1.666;2022-12-18T00:18:18;1.90;81.60
33988;DHT22;37428;53.580;-1.666;2022-12-18T00:21:21;1.90;81.00
33988;DHT22;37428;53.580;-1.666;2022-12-18T00:24:23;1.90;81.00
33988;DHT22;37428;53.580;-1.666;2022-12-18T00:27:47;1.90;80.60
33988;DHT22;37428;53.580;-1.666;2022-12-18T00:31:15;1.90;80.50
33988;DHT22;37428;53.580;-1.666;2022-12-18T00:34:17;1.90;80.00
33988;DHT22;37428;53.580;-1.666;2022-12-18T00:37:21;1.90;79.60
33988;DHT22;37428;53.580;-1.666;2022-12-18T00:40:24;1.90;79.00
33988;DHT22;37428;53.580;-1.666;2022-12-18T00:43:29;1.80;79.10
33988;DHT22;37428;53.580;-1.666;2022-12-18T00:46:32;1.80;79.20
33988;DHT22;37428;53.580;-1.666;2022-12-18T00:49:35;1.80;79.40
33988;DHT22;37428;53.580;-1.666;2022-12-18T00:52:40;1.80;79.70
33988;DHT22;37428;53.580;-1.666;2022-12-18T00:55:43;1.80;79.80
33988;DHT22;37428;53.580;-1.666;2022-12-18T00:58:45;1.80;79.60
33988;DHT22;37428;53.580;-1.666;2022-12-18T01:01:49;1.80;79.20
33988;DHT22;37428;53.580;-1.666;2022-12-18T01:04:52;1.80;78.80
33988;DHT22;37428;53.580;-1.666;2022-12-18T01:07:55;1.80;79.30
33988;DHT22;37428;53.580;-1.666;2022-12-18T01:11:00;1.80;79.50
33988;DHT22;37428;53.580;-1.666;2022-12-18T01:14:03;1.70;78.70
33988;DHT22;37428;53.580;-1.666;2022-12-18T01:17:14;1.70;77.80
33988;DHT22;37428;53.580;-1.666;2022-12-18T01:20:17;1.70;77.10
33988;DHT22;37428;53.580;-1.666;2022-12-18T01:23:19;1.60;76.90
33988;DHT22;37428;53.580;-1.666;2022-12-18T01:26:22;1.60;76.60
33988;DHT22;37428;53.580;-1.666;2022-12-18T01:29:27;1.50;76.70
33988;DHT22;37428;53.580;-1.666;2022-12-18T01:32:32;1.50;76.70
33988;DHT22;37428;53.580;-1.666;2022-12-18T01:35:41;1.40;77.20
33988;DHT22;37428;53.580;-1.666;2022-12-18T01:38:43;1.40;77.40
33988;DHT22;37428;53.580;-1.666;2022-12-18T01:41:46;1.30;77.50
33988;DHT22;37428;53.580;-1.666;2022-12-18T01:45:08;1.30;77.30
33988;DHT22;37428;53.580;-1.666;2022-12-18T01:48:25;1.30;76.80
33988;DHT22;37428;53.580;-1.666;2022-12-18T01:51:29;1.20;76.30
33988;DHT22;37428;53.580;-1.666;2022-12-18T01:54:32;1.20;75.40
33988;DHT22;37428;53.580;-1.666;2022-12-18T01:57:36;1.20;74.80
33988;DHT22;37428;53.580;-1.666;2022-12-18T02:00:39;1.10;75.10
33988;DHT22;37428;53.580;-1.666;2022-12-18T02:03:43;1.10;75.10
33988;DHT22;37428;53.580;-1.666;2022-12-18T02:06:47;1.10;75.80
33988;DHT22;37428;53.580;-1.666;2022-12-18T02:09:59;1.00;75.20
33988;DHT22;37428;53.580;-1.666;2022-12-18T02:13:07;1.00;73.40
33988;DHT22;37428;53.580;-1.666;2022-12-18T02:16:19;1.00;72.50
33988;DHT22;37428;53.580;-1.666;2022-12-18T02:19:46;0.90;72.40
33988;DHT22;37428;53.580;-1.666;2022-12-18T02:23:00;0.90;73.00
33988;DHT22;37428;53.580;-1.666;2022-12-18T02:26:19;0.90;73.30
33988;DHT22;37428;53.580;-1.666;2022-12-18T02:29:25;0.70;73.20
33988;DHT22;37428;53.580;-1.666;2022-12-18T02:32:34;0.70;74.40
33988;DHT22;37428;53.580;-1.666;2022-12-18T02:35:40;0.60;72.90
33988;DHT22;37428;53.580;-1.666;2022-12-18T02:38:44;0.60;72.70
33988;DHT22;37428;53.580;-1.666;2022-12-18T02:41:49;0.60;69.60
33988;DHT22;37428;53.580;-1.666;2022-12-18T02:44:55;0.70;69.60
33988;DHT22;37428;53.580;-1.666;2022-12-18T02:47:57;0.60;69.60
33988;DHT22;37428;53.580;-1.666;2022-12-18T02:51:03;0.60;70.80
33988;DHT22;37428;53.580;-1.666;2022-12-18T02:54:17;0.60;70.90
33988;DHT22;37428;53.580;-1.666;2022-12-18T02:57:33;0.60;70.40
33988;DHT22;37428;53.580;-1.666;2022-12-18T03:00:39;0.50;70.50
33988;DHT22;37428;53.580;-1.666;2022-12-18T03:03:47;0.60;66.90
33988;DHT22;37428;53.580;-1.666;2022-12-18T03:06:51;0.60;67.50
33988;DHT22;37428;53.580;-1.666;2022-12-18T03:09:55;0.60;68.30
33988;DHT22;37428;53.580;-1.666;2022-12-18T03:13:04;0.70;69.10
33988;DHT22;37428;53.580;-1.666;2022-12-18T03:16:10;0.70;69.60
33988;DHT22;37428;53.580;-1.666;2022-12-18T03:19:16;0.60;69.20
33988;DHT22;37428;53.580;-1.666;2022-12-18T03:22:21;0.60;68.80
33988;DHT22;37428;53.580;-1.666;2022-12-18T03:25:26;0.50;69.30
33988;DHT22;37428;53.580;-1.666;2022-12-18T03:28:32;0.50;69.50
33988;DHT22;37428;53.580;-1.666;2022-12-18T03:31:38;0.50;70.30
33988;DHT22;37428;53.580;-1.666;2022-12-18T03:34:42;0.50;70.90
33988;DHT22;37428;53.580;-1.666;2022-12-18T03:37:45;0.50;71.20
33988;DHT22;37428;53.580;-1.666;2022-12-18T03:40:56;0.50;71.20
33988;DHT22;37428;53.580;-1.666;2022-12-18T03:44:03;0.40;70.10
33988;DHT22;37428;53.580;-1.666;2022-12-18T03:47:14;0.40;70.80
33988;DHT22;37428;53.580;-1.666;2022-12-18T03:50:20;0.40;70.80
33988;DHT22;37428;53.580;-1.666;2022-12-18T03:53:32;0.30;71.20
33988;DHT22;37428;53.580;-1.666;2022-12-18T03:56:38;0.30;71.60
33988;DHT22;37428;53.580;-1.666;2022-12-18T03:59:44;0.20;71.60
33988;DHT22;37428;53.580;-1.666;2022-12-18T04:02:50;0.20;70.50
33988;DHT22;37428;53.580;-1.666;2022-12-18T04:05:54;0.20;70.20
33988;DHT22;37428;53.580;-1.666;2022-12-18T04:08:57;0.20;70.60
33988;DHT22;37428;53.580;-1.666;2022-12-18T04:12:00;0.20;70.50
33988;DHT22;37428;53.580;-1.666;2022-12-18T04:15:04;0.20;71.30
33988;DHT22;37428;53.580;-1.666;2022-12-18T04:18:08;0.30;71.50
33988;DHT22;37428;53.580;-1.666;2022-12-18T04:21:10;0.30;72.40
33988;DHT22;37428;53.580;-1.666;2022-12-18T04:24:12;0.30;72.20
33988;DHT22;37428;53.580;-1.666;2022-12-18T04:27:14;0.20;72.30
33988;DHT22;37428;53.580;-1.666;2022-12-18T04:30:18;0.20;72.10
33988;DHT22;37428;53.580;-1.666;2022-12-18T04:33:20;0.20;72.40
33988;DHT22;37428;53.580;-1.666;2022-12-18T04:36:22;0.20;72.70
33988;DHT22;37428;53.580;-1.666;2022-12-18T04:39:24;0.30;72.50
33988;DHT22;37428;53.580;-1.666;2022-12-18T04:42:26;0.20;72.80
33988;DHT22;37428;53.580;-1.666;2022-12-18T04:45:30;0.20;73.80
33988;DHT22;37428;53.580;-1.666;2022-12-18T04:48:33;0.10;75.10
33988;DHT22;37428;53.580;-1.666;2022-12-18T04:51:35;0.10;75.80
33988;DHT22;37428;53.580;-1.666;2022-12-18T04:54:37;0.00;76.20
33988;DHT22;37428;53.580;-1.666;2022-12-18T04:57:40;0.00;76.70
33988;DHT22;37428;53.580;-1.666;2022-12-18T05:00:43;0.00;76.70
33988;DHT22;37428;53.580;-1.666;2022-12-18T05:03:45;0.00;76.70
33988;DHT22;37428;53.580;-1.666;2022-12-18T05:06:47;-0.10;77.20
33988;DHT22;37428;53.580;-1.666;2022-12-18T05:09:50;-0.10;77.70
33988;DHT22;37428;53.580;-1.666;2022-12-18T05:12:52;-0.10;78.10
33988;DHT22;37428;53.580;-1.666;2022-12-18T05:16:02;-0.20;78.20
33988;DHT22;37428;53.580;-1.666;2022-12-18T05:19:04;-0.20;78.80
33988;DHT22;37428;53.580;-1.666;2022-12-18T05:22:07;-0.30;79.30
33988;DHT22;37428;53.580;-1.666;2022-12-18T05:25:09;-0.40;80.10
33988;DHT22;37428;53.580;-1.666;2022-12-18T05:28:11;-0.40;80.50
33988;DHT22;37428;53.580;-1.666;2022-12-18T05:31:15;-0.50;80.70
33988;DHT22;37428;53.580;-1.666;2022-12-18T05:34:17;-0.50;80.70
33988;DHT22;37428;53.580;-1.666;2022-12-18T05:37:19;-0.50;80.80
33988;DHT22;37428;53.580;-1.666;2022-12-18T05:40:21;-0.50;81.60
33988;DHT22;37428;53.580;-1.666;2022-12-18T05:43:26;-0.50;81.20
33988;DHT22;37428;53.580;-1.666;2022-12-18T05:46:31;-0.50;81.40
33988;DHT22;37428;53.580;-1.666;2022-12-18T05:49:33;-0.50;81.90
33988;DHT22;37428;53.580;-1.666;2022-12-18T05:52:35;-0.50;82.30
33988;DHT22;37428;53.580;-1.666;2022-12-18T05:55:39;-0.60;83.10
33988;DHT22;37428;53.580;-1.666;2022-12-18T05:58:41;-0.50;84.30
33988;DHT22;37428;53.580;-1.666;2022-12-18T06:01:45;-0.50;85.80
33988;DHT22;37428;53.580;-1.666;2022-12-18T06:04:48;-0.50;86.00
33988;DHT22;37428;53.580;-1.666;2022-12-18T06:07:50;-0.50;86.30
33988;DHT22;37428;53.580;-1.666;2022-12-18T06:10:53;-0.40;87.10
33988;DHT22;37428;53.580;-1.666;2022-12-18T06:13:56;-0.40;87.40
33988;DHT22;37428;53.580;-1.666;2022-12-18T06:17:00;-0.30;87.60
33988;DHT22;37428;53.580;-1.666;2022-12-18T06:20:02;-0.30;87.90
33988;DHT22;37428;53.580;-1.666;2022-12-18T06:23:05;-0.20;87.80
33988;DHT22;37428;53.580;-1.666;2022-12-18T06:26:08;-0.20;87.90
33988;DHT22;37428;53.580;-1.666;2022-12-18T06:29:11;-0.30;87.10
33988;DHT22;37428;53.580;-1.666;2022-12-18T06:32:14;-0.30;86.80
33988;DHT22;37428;53.580;-1.666;2022-12-18T06:35:17;-0.40;86.30
33988;DHT22;37428;53.580;-1.666;2022-12-18T06:38:19;-0.50;86.90
33988;DHT22;37428;53.580;-1.666;2022-12-18T06:41:22;-0.50;87.20
33988;DHT22;37428;53.580;-1.666;2022-12-18T06:44:24;-0.40;87.70
33988;DHT22;37428;53.580;-1.666;2022-12-18T06:47:28;-0.30;87.40
33988;DHT22;37428;53.580;-1.666;2022-12-18T06:50:30;-0.30;87.10
33988;DHT22;37428;53.580;-1.666;2022-12-18T06:53:32;-0.30;87.10
33988;DHT22;37428;53.580;-1.666;2022-12-18T06:56:35;-0.30;87.10
33988;DHT22;37428;53.580;-1.666;2022-12-18T06:59:37;-0.30;87.10
33988;DHT22;37428;53.580;-1.666;2022-12-18T07:02:40;-0.20;86.70
33988;DHT22;37428;53.580;-1.666;2022-12-18T07:05:42;-0.20;87.10
33988;DHT22;37428;53.580;-1.666;2022-12-18T07:08:47;-0.20;87.10
33988;DHT22;37428;53.580;-1.666;2022-12-18T07:11:49;-0.20;87.00
33988;DHT22;37428;53.580;-1.666;2022-12-18T07:14:51;-0.30;86.90
33988;DHT22;37428;53.580;-1.666;2022-12-18T07:17:55;-0.40;87.60
33988;DHT22;37428;53.580;-1.666;2022-12-18T07:20:57;-0.50;88.10
33988;DHT22;37428;53.580;-1.666;2022-12-18T07:23:59;-0.50;88.30
33988;DHT22;37428;53.580;-1.666;2022-12-18T07:27:01;-0.40;88.40
33988;DHT22;37428;53.580;-1.666;2022-12-18T07:30:04;-0.40;88.40
33988;DHT22;37428;53.580;-1.666;2022-12-18T07:33:08;-0.40;88.30
33988;DHT22;37428;53.580;-1.666;2022-12-18T07:36:11;-0.40;88.30
33988;DHT22;37428;53.580;-1.666;2022-12-18T07:39:13;-0.40;88.00
33988;DHT22;37428;53.580;-1.666;2022-12-18T07:42:15;-0.40;88.10
33988;DHT22;37428;53.580;-1.666;2022-12-18T07:45:32;-0.40;88.20
33988;DHT22;37428;53.580;-1.666;2022-12-18T07:48:36;-0.50;88.30
33988;DHT22;37428;53.580;-1.666;2022-12-18T07:51:38;-0.50;88.30
33988;DHT22;37428;53.580;-1.666;2022-12-18T07:54:41;-0.50;88.50
33988;DHT22;37428;53.580;-1.666;2022-12-18T07:57:42;-0.50;88.60
33988;DHT22;37428;53.580;-1.666;2022-12-18T08:00:45;-0.50;88.90
33988;DHT22;37428;53.580;-1.666;2022-12-18T08:03:48;-0.60;88.70
33988;DHT22;37428;53.580;-1.666;2022-12-18T08:06:50;-0.60;88.70
33988;DHT22;37428;53.580;-1.666;2022-12-18T08:09:52;-0.60;88.50
33988;DHT22;37428;53.580;-1.666;2022-12-18T08:12:55;-0.60;88.60
33988;DHT22;37428;53.580;-1.666;2022-12-18T08:15:58;-0.60;88.80
33988;DHT22;37428;53.580;-1.666;2022-12-18T08:19:02;-0.70;88.80
33988;DHT22;37428;53.580;-1.666;2022-12-18T08:22:04;-0.60;88.90
33988;DHT22;37428;53.580;-1.666;2022-12-18T08:25:07;-0.70;89.00
33988;DHT22;37428;53.580;-1.666;2022-12-18T08:28:09;-0.70;89.00
33988;DHT22;37428;53.580;-1.666;2022-12-18T08:31:12;-0.60;89.20
33988;DHT22;37428;53.580;-1.666;2022-12-18T08:34:15;-0.60;88.80
33988;DHT22;37428;53.580;-1.666;2022-12-18T08:37:17;-0.60;88.30
33988;DHT22;37428;53.580;-1.666;2022-12-18T08:40:19;-0.60;88.30
33988;DHT22;37428;53.580;-1.666;2022-12-18T08:43:21;-0.60;88.00
33988;DHT22;37428;53.580;-1.666;2022-12-18T08:46:42;-0.60;87.80
33988;DHT22;37428;53.580;-1.666;2022-12-18T08:49:46;-0.60;88.00
33988;DHT22;37428;53.580;-1.666;2022-12-18T08:52:48;-0.60;88.10
33988;DHT22;37428;53.580;-1.666;2022-12-18T08:55:51;-0.60;87.80
33988;DHT22;37428;53.580;-1.666;2022-12-18T08:58:53;-0.60;87.70
33988;DHT22;37428;53.580;-1.666;2022-12-18T09:01:56;-0.60;87.40
33988;DHT22;37428;53.580;-1.666;2022-12-18T09:04:59;-0.50;87.00
33988;DHT22;37428;53.580;-1.666;2022-12-18T09:08:01;-0.50;87.00
33988;DHT22;37428;53.580;-1.666;2022-12-18T09:11:03;-0.50;86.60
33988;DHT22;37428;53.580;-1.666;2022-12-18T09:14:06;-0.50;86.30
33988;DHT22;37428;53.580;-1.666;2022-12-18T09:17:08;-0.50;86.40
33988;DHT22;37428;53.580;-1.666;2022-12-18T09:20:11;-0.50;86.30
33988;DHT22;37428;53.580;-1.666;2022-12-18T09:23:14;-0.50;86.00
33988;DHT22;37428;53.580;-1.666;2022-12-18T09:26:16;-0.60;86.00
33988;DHT22;37428;53.580;-1.666;2022-12-18T09:29:18;-0.60;86.50
33988;DHT22;37428;53.580;-1.666;2022-12-18T09:32:20;-0.60;86.30
33988;DHT22;37428;53.580;-1.666;2022-12-18T09:35:24;-0.60;86.30
33988;DHT22;37428;53.580;-1.666;2022-12-18T09:38:26;-0.60;86.20
33988;DHT22;37428;53.580;-1.666;2022-12-18T09:41:40;-0.60;86.10
33988;DHT22;37428;53.580;-1.666;2022-12-18T09:44:47;-0.60;86.00
33988;DHT22;37428;53.580;-1.666;2022-12-18T09:47:52;-0.60;85.90
33988;DHT22;37428;53.580;-1.666;2022-12-18T09:51:02;-0.60;86.10
33988;DHT22;37428;53.580;-1.666;2022-12-18T09:54:11;-0.60;86.10
33988;DHT22;37428;53.580;-1.666;2022-12-18T09:57:18;-0.60;86.30
33988;DHT22;37428;53.580;-1.666;2022-12-18T10:00:23;-0.60;85.90
33988;DHT22;37428;53.580;-1.666;2022-12-18T10:03:25;-0.60;86.10
33988;DHT22;37428;53.580;-1.666;2022-12-18T10:06:35;-0.60;86.00
33988;DHT22;37428;53.580;-1.666;2022-12-18T10:09:45;-0.60;86.00
33988;DHT22;37428;53.580;-1.666;2022-12-18T10:13:13;-0.60;86.00
33988;DHT22;37428;53.580;-1.666;2022-12-18T10:16:27;-0.70;86.50
33988;DHT22;37428;53.580;-1.666;2022-12-18T10:19:50;-0.70;86.40
33988;DHT22;37428;53.580;-1.666;2022-12-18T10:23:08;-0.70;86.40
33988;DHT22;37428;53.580;-1.666;2022-12-18T10:26:39;-0.80;86.40
33988;DHT22;37428;53.580;-1.666;2022-12-18T10:30:04;-0.80;86.40
33988;DHT22;37428;53.580;-1.666;2022-12-18T10:33:30;-0.80;86.70
33988;DHT22;37428;53.580;-1.666;2022-12-18T10:36:32;-0.80;86.80
33988;DHT22;37428;53.580;-1.666;2022-12-18T10:40:09;-0.80;87.00
33988;DHT22;37428;53.580;-1.666;2022-12-18T10:43:34;-0.80;87.00
33988;DHT22;37428;53.580;-1.666;2022-12-18T10:46:37;-0.70;87.10
33988;DHT22;37428;53.580;-1.666;2022-12-18T10:49:46;-0.80;86.80
33988;DHT22;37428;53.580;-1.666;2022-12-18T10:52:55;-0.80;86.90
33988;DHT22;37428;53.580;-1.666;2022-12-18T10:56:00;-0.80;87.10
33988;DHT22;37428;53.580;-1.666;2022-12-18T10:59:07;-0.80;87.20
33988;DHT22;37428;53.580;-1.666;2022-12-18T11:02:26;-0.80;87.50
33988;DHT22;37428;53.580;-1.666;2022-12-18T11:05:32;-0.80;87.50
33988;DHT22;37428;53.580;-1.666;2022-12-18T11:08:39;-0.80;87.70
33988;DHT22;37428;53.580;-1.666;2022-12-18T11:11:54;-0.80;87.80
33988;DHT22;37428;53.580;-1.666;2022-12-18T11:15:04;-0.80;88.20
33988;DHT22;37428;53.580;-1.666;2022-12-18T11:18:17;-0.80;88.00
33988;DHT22;37428;53.580;-1.666;2022-12-18T11:21:21;-0.80;87.70
33988;DHT22;37428;53.580;-1.666;2022-12-18T11:24:28;-0.70;87.70
33988;DHT22;37428;53.580;-1.666;2022-12-18T11:27:33;-0.70;87.50
33988;DHT22;37428;53.580;-1.666;2022-12-18T11:30:36;-0.70;87.50
33988;DHT22;37428;53.580;-1.666;2022-12-18T11:33:41;-0.70;87.80
33988;DHT22;37428;53.580;-1.666;2022-12-18T11:36:45;-0.60;87.80
33988;DHT22;37428;53.580;-1.666;2022-12-18T11:39:52;-0.60;87.60
33988;DHT22;37428;53.580;-1.666;2022-12-18T11:43:06;-0.60;87.70
33988;DHT22;37428;53.580;-1.666;2022-12-18T11:46:11;-0.60;87.70
33988;DHT22;37428;53.580;-1.666;2022-12-18T11:49:20;-0.50;88.00
33988;DHT22;37428;53.580;-1.666;2022-12-18T11:52:24;-0.50;87.80
33988;DHT22;37428;53.580;-1.666;2022-12-18T11:55:35;-0.60;87.80
33988;DHT22;37428;53.580;-1.666;2022-12-18T11:58:47;-0.60;88.10
33988;DHT22;37428;53.580;-1.666;2022-12-18T12:01:52;-0.60;88.10
33988;DHT22;37428;53.580;-1.666;2022-12-18T12:05:13;-0.50;88.20
33988;DHT22;37428;53.580;-1.666;2022-12-18T12:08:22;-0.50;88.30
33988;DHT22;37428;53.580;-1.666;2022-12-18T12:11:37;-0.50;88.30
33988;DHT22;37428;53.580;-1.666;2022-12-18T12:14:50;-0.50;88.50
33988;DHT22;37428;53.580;-1.666;2022-12-18T12:18:01;-0.50;88.50
33988;DHT22;37428;53.580;-1.666;2022-12-18T12:21:12;-0.50;89.20
33988;DHT22;37428;53.580;-1.666;2022-12-18T12:24:28;-0.40;88.70
33988;DHT22;37428;53.580;-1.666;2022-12-18T12:27:38;-0.40;88.60
33988;DHT22;37428;53.580;-1.666;2022-12-18T12:30:54;-0.40;88.70
33988;DHT22;37428;53.580;-1.666;2022-12-18T12:34:07;-0.30;89.20
33988;DHT22;37428;53.580;-1.666;2022-12-18T12:37:22;-0.40;88.70
33988;DHT22;37428;53.580;-1.666;2022-12-18T12:40:28;-0.30;88.40
33988;DHT22;37428;53.580;-1.666;2022-12-18T12:43:37;-0.30;88.40
33988;DHT22;37428;53.580;-1.666;2022-12-18T12:46:42;-0.30;88.70
33988;DHT22;37428;53.580;-1.666;2022-12-18T12:49:45;-0.30;88.50
33988;DHT22;37428;53.580;-1.666;2022-12-18T12:52:52;-0.30;88.70
33988;DHT22;37428;53.580;-1.666;2022-12-18T12:55:55;-0.30;88.70
33988;DHT22;37428;53.580;-1.666;2022-12-18T12:59:04;-0.30;88.80
33988;DHT22;37428;53.580;-1.666;2022-12-18T13:02:18;-0.30;89.00
33988;DHT22;37428;53.580;-1.666;2022-12-18T13:05:28;-0.30;89.20
33988;DHT22;37428;53.580;-1.666;2022-12-18T13:08:34;-0.30;89.40
33988;DHT22;37428;53.580;-1.666;2022-12-18T13:11:52;-0.30;89.40
33988;DHT22;37428;53.580;-1.666;2022-12-18T13:15:19;-0.40;89.70
33988;DHT22;37428;53.580;-1.666;2022-12-18T13:18:24;-0.40;90.30
33988;DHT22;37428;53.580;-1.666;2022-12-18T13:21:52;-0.40;90.80
33988;DHT22;37428;53.580;-1.666;2022-12-18T13:25:03;-0.40;91.10
33988;DHT22;37428;53.580;-1.666;2022-12-18T13:28:09;-0.50;91.60
33988;DHT22;37428;53.580;-1.666;2022-12-18T13:31:12;-0.50;92.00
33988;DHT22;37428;53.580;-1.666;2022-12-18T13:34:31;-0.40;92.30
33988;DHT22;37428;53.580;-1.666;2022-12-18T13:37:42;-0.40;92.50
33988;DHT22;37428;53.580;-1.666;2022-12-18T13:40:55;-0.40;92.60
33988;DHT22;37428;53.580;-1.666;2022-12-18T13:44:11;-0.40;92.80
33988;DHT22;37428;53.580;-1.666;2022-12-18T13:47:27;-0.40;93.10
33988;DHT22;37428;53.580;-1.666;2022-12-18T13:50:34;-0.30;93.40
33988;DHT22;37428;53.580;-1.666;2022-12-18T13:53:42;-0.30;93.60
33988;DHT22;37428;53.580;-1.666;2022-12-18T13:56:46;-0.30;93.70
33988;DHT22;37428;53.580;-1.666;2022-12-18T13:59:49;-0.30;93.80
33988;DHT22;37428;53.580;-1.666;2022-12-18T14:02:51;-0.20;93.90
33988;DHT22;37428;53.580;-1.666;2022-12-18T14:06:01;-0.20;94.10
33988;DHT22;37428;53.580;-1.666;2022-12-18T14:09:05;-0.20;94.40
33988;DHT22;37428;53.580;-1.666;2022-12-18T14:12:15;-0.20;94.40
33988;DHT22;37428;53.580;-1.666;2022-12-18T14:15:39;-0.20;94.50
33988;DHT22;37428;53.580;-1.666;2022-12-18T14:18:44;-0.10;94.70
33988;DHT22;37428;53.580;-1.666;2022-12-18T14:21:49;-0.20;94.80
33988;DHT22;37428;53.580;-1.666;2022-12-18T14:25:13;-0.10;95.10
33988;DHT22;37428;53.580;-1.666;2022-12-18T14:28:19;-0.10;95.10
33988;DHT22;37428;53.580;-1.666;2022-12-18T14:31:24;0.00;95.10
33988;DHT22;37428;53.580;-1.666;2022-12-18T14:34:27;0.00;95.20
33988;DHT22;37428;53.580;-1.666;2022-12-18T14:37:44;0.00;95.00
33988;DHT22;37428;53.580;-1.666;2022-12-18T14:41:00;0.00;95.10
33988;DHT22;37428;53.580;-1.666;2022-12-18T14:44:21;0.00;95.70
33988;DHT22;37428;53.580;-1.666;2022-12-18T14:47:42;0.00;95.30
33988;DHT22;37428;53.580;-1.666;2022-12-18T14:51:15;0.00;95.50
33988;DHT22;37428;53.580;-1.666;2022-12-18T14:54:27;0.00;95.80
33988;DHT22;37428;53.580;-1.666;2022-12-18T14:57:37;0.10;95.90
33988;DHT22;37428;53.580;-1.666;2022-12-18T15:00:47;0.10;95.90
33988;DHT22;37428;53.580;-1.666;2022-12-18T15:04:00;0.20;95.90
33988;DHT22;37428;53.580;-1.666;2022-12-18T15:07:15;0.20;95.90
33988;DHT22;37428;53.580;-1.666;2022-12-18T15:10:27;0.30;95.90
33988;DHT22;37428;53.580;-1.666;2022-12-18T15:13:32;0.30;96.00
33988;DHT22;37428;53.580;-1.666;2022-12-18T15:16:36;0.30;96.00
33988;DHT22;37428;53.580;-1.666;2022-12-18T15:19:46;0.30;96.30
33988;DHT22;37428;53.580;-1.666;2022-12-18T15:22:56;0.30;96.40
33988;DHT22;37428;53.580;-1.666;2022-12-18T15:26:03;0.30;96.50
33988;DHT22;37428;53.580;-1.666;2022-12-18T15:29:24;0.30;96.70
33988;DHT22;37428;53.580;-1.666;2022-12-18T15:32:27;0.30;97.00
33988;DHT22;37428;53.580;-1.666;2022-12-18T15:35:29;0.30;97.20
33988;DHT22;37428;53.580;-1.666;2022-12-18T15:38:39;0.30;97.10
33988;DHT22;37428;53.580;-1.666;2022-12-18T15:42:08;0.30;97.00
33988;DHT22;37428;53.580;-1.666;2022-12-18T15:45:30;0.30;97.20
33988;DHT22;37428;53.580;-1.666;2022-12-18T15:48:39;0.30;97.20
33988;DHT22;37428;53.580;-1.666;2022-12-18T15:51:42;0.40;98.00
33988;DHT22;37428;53.580;-1.666;2022-12-18T15:54:57;0.40;97.20
33988;DHT22;37428;53.580;-1.666;2022-12-18T15:58:18;0.40;97.40
33988;DHT22;37428;53.580;-1.666;2022-12-18T16:01:32;0.40;97.40
33988;DHT22;37428;53.580;-1.666;2022-12-18T16:04:38;0.40;97.70
33988;DHT22;37428;53.580;-1.666;2022-12-18T16:07:41;0.40;97.80
33988;DHT22;37428;53.580;-1.666;2022-12-18T16:10:52;0.40;97.80
33988;DHT22;37428;53.580;-1.666;2022-12-18T16:14:04;0.50;97.90
33988;DHT22;37428;53.580;-1.666;2022-12-18T16:17:12;0.50;97.80
33988;DHT22;37428;53.580;-1.666;2022-12-18T16:20:15;0.50;97.90
33988;DHT22;37428;53.580;-1.666;2022-12-18T16:23:21;0.50;97.90
33988;DHT22;37428;53.580;-1.666;2022-12-18T16:26:35;0.50;98.00
33988;DHT22;37428;53.580;-1.666;2022-12-18T16:29:39;0.50;98.00
33988;DHT22;37428;53.580;-1.666;2022-12-18T16:32:48;0.60;98.20
33988;DHT22;37428;53.580;-1.666;2022-12-18T16:35:55;0.50;98.00
33988;DHT22;37428;53.580;-1.666;2022-12-18T16:39:07;0.60;98.20
33988;DHT22;37428;53.580;-1.666;2022-12-18T16:42:15;0.60;98.20
33988;DHT22;37428;53.580;-1.666;2022-12-18T16:45:22;0.60;98.10
33988;DHT22;37428;53.580;-1.666;2022-12-18T16:48:30;0.60;98.10
33988;DHT22;37428;53.580;-1.666;2022-12-18T16:51:37;0.60;98.30
33988;DHT22;37428;53.580;-1.666;2022-12-18T16:54:49;0.60;98.30
33988;DHT22;37428;53.580;-1.666;2022-12-18T16:58:04;0.60;98.40
33988;DHT22;37428;53.580;-1.666;2022-12-18T17:01:10;0.70;98.30
33988;DHT22;37428;53.580;-1.666;2022-12-18T17:04:13;0.70;98.50
33988;DHT22;37428;53.580;-1.666;2022-12-18T17:07:27;0.70;98.40
33988;DHT22;37428;53.580;-1.666;2022-12-18T17:10:43;0.70;98.50
33988;DHT22;37428;53.580;-1.666;2022-12-18T17:13:59;0.70;98.50
33988;DHT22;37428;53.580;-1.666;2022-12-18T17:17:05;0.70;98.60
33988;DHT22;37428;53.580;-1.666;2022-12-18T17:20:15;0.70;98.70
33988;DHT22;37428;53.580;-1.666;2022-12-18T17:23:40;0.70;99.00
33988;DHT22;37428;53.580;-1.666;2022-12-18T17:26:43;0.70;98.90
33988;DHT22;37428;53.580;-1.666;2022-12-18T17:30:01;0.70;99.00
33988;DHT22;37428;53.580;-1.666;2022-12-18T17:33:08;0.70;99.10
33988;DHT22;37428;53.580;-1.666;2022-12-18T17:36:11;0.70;99.40
33988;DHT22;37428;53.580;-1.666;2022-12-18T17:39:19;0.70;99.50
33988;DHT22;37428;53.580;-1.666;2022-12-18T17:42:25;0.70;99.60
33988;DHT22;37428;53.580;-1.666;2022-12-18T17:45:29;0.80;99.70
33988;DHT22;37428;53.580;-1.666;2022-12-18T17:48:37;0.80;99.80
33988;DHT22;37428;53.580;-1.666;2022-12-18T17:51:44;0.80;99.90
33988;DHT22;37428;53.580;-1.666;2022-12-18T17:54:49;0.80;99.90
33988;DHT22;37428;53.580;-1.666;2022-12-18T17:57:56;0.90;99.90
33988;DHT22;37428;53.580;-1.666;2022-12-18T18:01:06;0.90;99.90
33988;DHT22;37428;53.580;-1.666;2022-12-18T18:04:13;1.00;99.90
33988;DHT22;37428;53.580;-1.666;2022-12-18T18:07:20;1.00;99.90
33988;DHT22;37428;53.580;-1.666;2022-12-18T18:10:29;1.00;99.90
33988;DHT22;37428;53.580;-1.666;2022-12-18T18:13:36;1.00;99.90
33988;DHT22;37428;53.580;-1.666;2022-12-18T18:16:55;1.10;99.90
33988;DHT22;37428;53.580;-1.666;2022-12-18T18:20:02;1.10;99.90
33988;DHT22;37428;53.580;-1.666;2022-12-18T18:23:08;1.10;99.90
33988;DHT22;37428;53.580;-1.666;2022-12-18T18:26:11;1.20;99.90
33988;DHT22;37428;53.580;-1.666;2022-12-18T18:29:17;1.20;99.90
33988;DHT22;37428;53.580;-1.666;2022-12-18T18:32:23;1.30;99.90
33988;DHT22;37428;53.580;-1.666;2022-12-18T18:35:46;1.30;99.90
33988;DHT22;37428;53.580;-1.666;2022-12-18T18:38:48;1.40;99.90
33988;DHT22;37428;53.580;-1.666;2022-12-18T18:41:51;1.60;99.90
33988;DHT22;37428;53.580;-1.666;2022-12-18T18:44:55;1.60;99.90
33988;DHT22;37428;53.580;-1.666;2022-12-18T18:48:01;1.70;99.90
33988;DHT22;37428;53.580;-1.666;2022-12-18T18:51:14;1.80;99.90
33988;DHT22;37428;53.580;-1.666;2022-12-18T18:54:32;1.90;99.90
33988;DHT22;37428;53.580;-1.666;2022-12-18T18:57:40;1.90;99.90
33988;DHT22;37428;53.580;-1.666;2022-12-18T19:00:42;2.00;99.90
33988;DHT22;37428;53.580;-1.666;2022-12-18T19:03:45;2.00;99.90
33988;DHT22;37428;53.580;-1.666;2022-12-18T19:06:55;2.10;99.90
33988;DHT22;37428;53.580;-1.666;2022-12-18T19:09:58;2.20;99.90
33988;DHT22;37428;53.580;-1.666;2022-12-18T19:13:01;2.30;99.90
33988;DHT22;37428;53.580;-1.666;2022-12-18T19:16:23;2.40;99.90
33988;DHT22;37428;53.580;-1.666;2022-12-18T19:19:33;2.60;99.90
33988;DHT22;37428;53.580;-1.666;2022-12-18T19:22:37;2.70;99.90
33988;DHT22;37428;53.580;-1.666;2022-12-18T19:25:40;2.70;99.90
33988;DHT22;37428;53.580;-1.666;2022-12-18T19:28:42;2.80;99.90
33988;DHT22;37428;53.580;-1.666;2022-12-18T19:31:53;2.80;99.90
33988;DHT22;37428;53.580;-1.666;2022-12-18T19:34:57;2.90;99.90